createdAt,value
2022-07-31T00:02:24.688Z,7.00
2022-07-31T00:04:52.294Z,6.30
2022-07-31T00:07:21.674Z,6.63
2022-07-31T00:09:54.263Z,10.00
2022-07-31T00:12:22.246Z,7.53
2022-07-31T00:14:49.753Z,7.77
2022-07-31T00:17:20.193Z,5.70
2022-07-31T00:19:50.445Z,7.07
2022-07-31T00:22:19.698Z,8.83
2022-07-31T00:24:47.639Z,5.63
2022-07-31T00:27:15.192Z,7.73
2022-07-31T00:29:42.404Z,8.03
2022-07-31T00:32:11.503Z,6.47
2022-07-31T00:34:39.392Z,6.57
2022-07-31T00:37:06.947Z,6.53
2022-07-31T00:39:34.278Z,6.07
2022-07-31T00:42:01.885Z,7.23
2022-07-31T00:44:31.574Z,8.07
2022-07-31T00:46:58.935Z,6.80
2022-07-31T00:49:37.824Z,6.67
2022-07-31T00:52:05.597Z,6.73
2022-07-31T00:54:35.693Z,7.87
2022-07-31T00:57:03.493Z,14.50
2022-07-31T00:59:31.838Z,7.70
2022-07-31T01:01:59.242Z,11.47
2022-07-31T01:04:28.775Z,7.67
2022-07-31T01:07:00.977Z,6.50
2022-07-31T01:09:28.631Z,9.07
2022-07-31T01:12:06.393Z,6.87
2022-07-31T01:14:37.275Z,8.03
2022-07-31T01:17:07.567Z,7.60
2022-07-31T01:19:43.063Z,8.87
2022-07-31T01:22:34.695Z,7.60
2022-07-31T01:25:39.499Z,9.07
2022-07-31T01:28:06.848Z,10.40
2022-07-31T01:30:35.621Z,6.97
2022-07-31T01:33:05.493Z,6.70
2022-07-31T01:35:34.180Z,8.13
2022-07-31T01:38:13.119Z,4.57
2022-07-31T01:40:45.298Z,11.07
2022-07-31T01:43:17.314Z,6.80
2022-07-31T01:45:47.945Z,8.53
2022-07-31T01:48:18.329Z,7.20
2022-07-31T01:50:45.970Z,6.63
2022-07-31T01:53:18.648Z,9.17
2022-07-31T01:56:02.959Z,7.07
2022-07-31T01:58:35.166Z,9.90
2022-07-31T02:01:04.928Z,8.73
2022-07-31T02:03:43.421Z,6.00
2022-07-31T02:06:13.308Z,8.10
2022-07-31T02:08:40.524Z,6.20
2022-07-31T02:11:09.782Z,8.13
2022-07-31T02:13:36.964Z,6.83
2022-07-31T02:16:04.963Z,7.20
2022-07-31T02:18:34.695Z,9.57
2022-07-31T02:21:04.419Z,6.00
2022-07-31T02:23:31.570Z,3.57
2022-07-31T02:26:01.324Z,4.33
2022-07-31T02:28:28.471Z,8.50
2022-07-31T02:30:56.484Z,11.47
2022-07-31T02:33:25.573Z,8.73
2022-07-31T02:35:54.136Z,7.60
2022-07-31T02:38:24.527Z,7.63
2022-07-31T02:40:52.089Z,7.07
2022-07-31T02:43:22.148Z,10.70
2022-07-31T02:45:49.765Z,5.70
2022-07-31T02:48:16.926Z,7.67
2022-07-31T02:50:44.483Z,5.27
2022-07-31T02:53:13.862Z,8.13
2022-07-31T02:55:43.605Z,7.63
2022-07-31T02:58:10.778Z,8.00
2022-07-31T03:00:38.858Z,6.23
2022-07-31T03:03:06.089Z,8.07
2022-07-31T03:05:33.286Z,5.57
2022-07-31T03:08:01.167Z,9.23
2022-07-31T03:10:30.971Z,6.40
2022-07-31T03:12:58.170Z,6.00
2022-07-31T03:15:27.046Z,6.90
2022-07-31T03:17:54.663Z,7.93
2022-07-31T03:20:22.319Z,8.63
2022-07-31T03:22:49.591Z,8.73
2022-07-31T03:25:20.113Z,8.97
2022-07-31T03:27:56.521Z,4.43
2022-07-31T03:30:27.142Z,8.13
2022-07-31T03:32:54.933Z,7.70
2022-07-31T03:35:24.697Z,7.43
2022-07-31T03:37:52.426Z,5.77
2022-07-31T03:40:19.996Z,6.70
2022-07-31T03:42:49.444Z,7.60
2022-07-31T03:45:16.584Z,8.20
2022-07-31T03:47:44.139Z,5.53
2022-07-31T03:50:11.369Z,10.83
2022-07-31T03:52:38.511Z,8.03
2022-07-31T03:55:05.795Z,6.83
2022-07-31T03:57:34.311Z,10.17
2022-07-31T04:00:04.681Z,5.67
2022-07-31T04:02:34.914Z,6.17
2022-07-31T04:05:05.626Z,5.10
2022-07-31T04:07:35.391Z,6.70
2022-07-31T04:10:02.968Z,5.90
2022-07-31T04:12:30.497Z,7.30
2022-07-31T04:14:58.023Z,8.13
2022-07-31T04:17:25.186Z,5.83
2022-07-31T04:19:54.990Z,6.63
2022-07-31T04:22:22.163Z,9.17
2022-07-31T04:24:49.781Z,5.30
2022-07-31T04:27:17.710Z,6.37
2022-07-31T04:29:49.249Z,6.70
2022-07-31T04:32:16.779Z,5.53
2022-07-31T04:34:44.009Z,5.00
2022-07-31T04:37:14.108Z,6.70
2022-07-31T04:39:41.309Z,4.97
2022-07-31T04:42:11.487Z,4.67
2022-07-31T04:44:39.743Z,6.43
2022-07-31T04:47:08.066Z,6.50
2022-07-31T04:49:38.164Z,5.07
2022-07-31T04:52:06.176Z,5.27
2022-07-31T04:54:36.077Z,4.30
2022-07-31T04:57:03.228Z,4.00
2022-07-31T04:59:59.485Z,5.80
2022-07-31T05:02:18.671Z,3.37
2022-07-31T05:04:46.235Z,5.03
2022-07-31T05:07:28.885Z,4.47
2022-07-31T05:09:56.909Z,3.23
2022-07-31T05:12:24.872Z,2.50
2022-07-31T05:14:53.532Z,4.07
2022-07-31T05:17:20.735Z,3.87
2022-07-31T05:19:48.299Z,3.57
2022-07-31T05:22:16.367Z,2.90
2022-07-31T05:24:46.435Z,2.57
2022-07-31T05:27:13.654Z,2.23
2022-07-31T05:29:43.051Z,2.50
2022-07-31T05:32:10.769Z,2.03
2022-07-31T05:34:38.459Z,5.27
2022-07-31T05:37:05.616Z,1.97
2022-07-31T05:39:33.144Z,2.00
2022-07-31T05:42:00.795Z,1.90
2022-07-31T05:44:28.677Z,2.03
2022-07-31T05:49:24.055Z,2.40
2022-07-31T05:51:54.570Z,2.13
2022-07-31T05:54:22.251Z,1.63
2022-07-31T05:56:49.436Z,1.50
2022-07-31T05:59:19.464Z,2.70
2022-07-31T06:01:50.071Z,1.93
2022-07-31T06:04:17.721Z,1.90
2022-07-31T06:06:44.887Z,1.80
2022-07-31T06:09:16.843Z,1.87
2022-07-31T06:11:44.764Z,2.30
2022-07-31T06:14:11.954Z,1.73
2022-07-31T06:16:39.535Z,2.50
2022-07-31T06:19:07.423Z,3.10
2022-07-31T06:21:34.956Z,1.97
2022-07-31T06:24:04.751Z,2.70
2022-07-31T06:26:35.616Z,2.40
2022-07-31T06:29:02.776Z,1.77
2022-07-31T06:31:32.186Z,1.70
2022-07-31T06:33:59.856Z,3.77
2022-07-31T06:36:27.756Z,1.50
2022-07-31T06:38:55.187Z,3.30
2022-07-31T06:41:41.204Z,3.77
2022-07-31T06:44:10.978Z,2.10
2022-07-31T06:46:49.027Z,1.80
2022-07-31T06:49:17.417Z,1.80
2022-07-31T06:51:44.694Z,1.43
2022-07-31T06:54:12.155Z,1.70
2022-07-31T06:56:39.826Z,2.40
2022-07-31T06:59:07.415Z,2.40
2022-07-31T07:01:34.637Z,4.33
2022-07-31T07:04:04.570Z,1.70
2022-07-31T07:06:34.351Z,1.53
2022-07-31T07:09:02.124Z,2.90
2022-07-31T07:11:29.731Z,2.77
2022-07-31T07:13:57.338Z,1.70
2022-07-31T07:16:24.466Z,2.00
2022-07-31T07:18:51.336Z,1.80
2022-07-31T07:21:18.848Z,2.93
2022-07-31T07:23:46.519Z,1.87
2022-07-31T07:26:14.145Z,2.10
2022-07-31T07:28:41.616Z,2.40
2022-07-31T07:31:13.067Z,2.50
2022-07-31T07:33:43.148Z,3.17
2022-07-31T07:36:23.864Z,3.43
2022-07-31T07:38:55.722Z,2.47
2022-07-31T07:41:29.260Z,2.50
2022-07-31T07:43:57.102Z,3.80
2022-07-31T07:46:24.042Z,4.83
2022-07-31T07:48:52.140Z,3.47
2022-07-31T07:51:21.831Z,3.30
2022-07-31T07:53:49.075Z,3.80
2022-07-31T07:56:16.190Z,3.33
2022-07-31T07:58:46.103Z,3.50
2022-07-31T08:01:13.977Z,4.60
2022-07-31T08:03:49.687Z,3.90
2022-07-31T08:06:24.387Z,5.57
2022-07-31T08:08:53.668Z,4.40
2022-07-31T08:11:21.195Z,5.00
2022-07-31T08:13:51.022Z,5.70
2022-07-31T08:16:19.947Z,4.83
2022-07-31T08:18:47.223Z,5.13
2022-07-31T08:21:15.227Z,6.30
2022-07-31T08:23:42.289Z,4.73
2022-07-31T08:26:11.517Z,6.87
2022-07-31T08:28:40.351Z,5.33
2022-07-31T08:31:08.256Z,5.37
2022-07-31T08:33:37.276Z,5.27
2022-07-31T08:36:04.930Z,6.03
2022-07-31T08:38:32.079Z,7.83
2022-07-31T08:41:03.886Z,5.63
2022-07-31T08:44:03.212Z,5.77
2022-07-31T08:46:18.318Z,5.37
2022-07-31T08:48:45.587Z,7.27
2022-07-31T08:51:15.031Z,6.30
2022-07-31T08:53:42.449Z,5.40
2022-07-31T08:56:13.899Z,5.50
2022-07-31T08:58:41.615Z,5.40
2022-07-31T09:01:08.929Z,6.83
2022-07-31T09:03:36.360Z,5.77
2022-07-31T09:06:03.985Z,7.23
2022-07-31T09:08:37.607Z,5.10
2022-07-31T09:11:14.115Z,5.83
2022-07-31T09:14:01.781Z,7.53
2022-07-31T09:16:30.493Z,4.40
2022-07-31T09:19:52.132Z,4.87
2022-07-31T09:21:57.232Z,5.47
2022-07-31T09:24:28.699Z,5.17
2022-07-31T09:27:06.293Z,6.50
2022-07-31T09:29:43.232Z,5.40
2022-07-31T09:32:14.711Z,5.10
2022-07-31T09:34:41.990Z,5.97
2022-07-31T09:37:16.969Z,5.93
2022-07-31T09:39:52.832Z,5.07
2022-07-31T09:42:20.349Z,5.60
2022-07-31T09:44:50.773Z,4.93
2022-07-31T09:47:23.986Z,5.40
2022-07-31T09:49:55.643Z,7.10
2022-07-31T09:52:23.027Z,5.67
2022-07-31T09:55:16.130Z,7.80
2022-07-31T09:57:57.928Z,6.23
2022-07-31T10:00:25.116Z,6.00
2022-07-31T10:02:54.530Z,6.60
2022-07-31T10:05:26.493Z,5.43
2022-07-31T10:07:54.610Z,7.33
2022-07-31T10:10:21.369Z,5.93
2022-07-31T10:12:53.431Z,5.67
2022-07-31T10:15:21.180Z,8.27
2022-07-31T10:17:50.900Z,6.00
2022-07-31T10:20:21.735Z,7.80
2022-07-31T10:22:57.649Z,9.60
2022-07-31T10:25:28.798Z,7.83
2022-07-31T10:27:57.307Z,5.87
2022-07-31T10:30:27.796Z,6.60
2022-07-31T10:32:56.601Z,5.60
2022-07-31T10:35:23.814Z,5.50
2022-07-31T10:38:09.014Z,6.07
2022-07-31T10:41:15.271Z,6.10
2022-07-31T10:43:51.653Z,7.43
2022-07-31T10:46:31.880Z,5.23
2022-07-31T10:48:58.696Z,6.57
2022-07-31T10:51:31.731Z,5.07
2022-07-31T10:54:02.424Z,4.93
2022-07-31T10:56:31.763Z,4.73
2022-07-31T10:58:58.736Z,5.13
2022-07-31T11:01:27.049Z,3.97
2022-07-31T11:03:57.097Z,6.10
2022-07-31T11:06:24.865Z,3.87
2022-07-31T11:08:53.138Z,4.83
2022-07-31T11:11:34.230Z,3.40
2022-07-31T11:14:01.771Z,4.07
2022-07-31T11:16:29.390Z,3.63
2022-07-31T11:19:06.366Z,4.57
2022-07-31T11:21:39.668Z,4.87
2022-07-31T11:24:13.378Z,4.10
2022-07-31T11:26:50.673Z,4.30
2022-07-31T11:29:59.751Z,4.40
2022-07-31T11:32:26.559Z,7.27
2022-07-31T11:34:56.703Z,5.17
2022-07-31T11:37:34.283Z,5.00
2022-07-31T11:40:15.940Z,4.77
2022-07-31T11:42:43.769Z,6.80
2022-07-31T11:45:12.480Z,5.40
2022-07-31T11:48:10.811Z,6.50
2022-07-31T11:50:43.253Z,6.50
2022-07-31T11:53:10.777Z,4.50
2022-07-31T11:55:46.881Z,7.37
2022-07-31T11:58:14.548Z,6.50
2022-07-31T12:01:00.558Z,7.83
2022-07-31T12:03:31.765Z,4.97
2022-07-31T12:06:01.467Z,6.33
2022-07-31T12:08:28.783Z,5.60
2022-07-31T12:10:56.847Z,7.57
2022-07-31T12:13:24.533Z,5.40
2022-07-31T12:16:23.722Z,7.10
2022-07-31T12:18:53.835Z,8.40
2022-07-31T12:21:21.593Z,9.20
2022-07-31T12:23:50.684Z,7.23
2022-07-31T12:26:23.658Z,7.37
2022-07-31T12:29:10.227Z,8.47
2022-07-31T12:32:03.711Z,7.20
2022-07-31T12:34:40.849Z,7.23
2022-07-31T12:37:09.907Z,8.13
2022-07-31T12:40:00.334Z,10.00
2022-07-31T12:42:30.804Z,8.80
2022-07-31T12:44:59.403Z,9.43
2022-07-31T12:47:30.117Z,9.47
2022-07-31T12:49:57.698Z,7.93
2022-07-31T12:52:35.450Z,7.03
2022-07-31T12:55:02.931Z,9.50
2022-07-31T12:57:30.090Z,8.60
2022-07-31T12:59:57.488Z,7.63
2022-07-31T13:02:25.109Z,11.67
2022-07-31T13:04:52.402Z,7.90
2022-07-31T13:07:19.609Z,9.47
2022-07-31T13:10:19.046Z,9.23
2022-07-31T13:12:35.329Z,11.30
2022-07-31T13:15:02.540Z,9.87
2022-07-31T13:17:29.913Z,10.60
2022-07-31T13:19:57.519Z,13.50
2022-07-31T13:22:25.069Z,10.53
2022-07-31T13:24:52.225Z,12.77
2022-07-31T13:27:19.597Z,11.43
2022-07-31T13:29:47.327Z,8.23
2022-07-31T13:32:14.969Z,11.97
2022-07-31T13:34:42.534Z,10.20
2022-07-31T13:37:12.167Z,10.53
2022-07-31T13:39:39.750Z,10.77
2022-07-31T13:42:07.049Z,12.23
2022-07-31T13:44:38.257Z,9.90
2022-07-31T13:47:05.331Z,9.70
2022-07-31T13:49:32.626Z,9.83
2022-07-31T13:52:00.103Z,9.03
2022-07-31T13:54:30.056Z,9.87
2022-07-31T13:56:56.903Z,8.93
2022-07-31T13:59:27.244Z,12.53
2022-07-31T14:02:03.406Z,10.67
2022-07-31T14:04:38.313Z,11.60
2022-07-31T14:07:09.097Z,11.00
2022-07-31T14:09:36.208Z,10.67
2022-07-31T14:12:04.582Z,6.90
2022-07-31T14:14:32.603Z,7.70
2022-07-31T14:16:59.784Z,8.30
2022-07-31T14:19:27.082Z,8.80
2022-07-31T14:21:56.836Z,9.13
2022-07-31T14:24:24.830Z,7.07
2022-07-31T14:26:53.907Z,6.03
2022-07-31T14:29:23.018Z,7.77
2022-07-31T14:31:50.007Z,6.37
2022-07-31T14:34:17.170Z,6.87
2022-07-31T14:36:46.476Z,8.17
2022-07-31T14:39:15.511Z,8.03
2022-07-31T14:41:45.311Z,5.90
2022-07-31T14:44:20.937Z,6.00
2022-07-31T14:46:49.811Z,5.07
2022-07-31T14:49:17.015Z,6.23
2022-07-31T14:51:43.904Z,6.00
2022-07-31T14:54:10.714Z,4.20
2022-07-31T14:57:00.260Z,6.80
2022-07-31T14:59:24.694Z,8.20
2022-07-31T15:01:52.071Z,5.33
2022-07-31T15:04:19.231Z,4.23
2022-07-31T15:06:56.421Z,4.27
2022-07-31T15:09:30.989Z,4.40
2022-07-31T15:12:00.993Z,3.37
2022-07-31T15:14:31.915Z,4.23
2022-07-31T15:17:42.492Z,3.03
2022-07-31T15:20:10.884Z,3.33
2022-07-31T15:22:38.132Z,3.87
2022-07-31T15:25:05.876Z,4.73
2022-07-31T15:27:33.096Z,2.33
2022-07-31T15:30:06.483Z,2.83
2022-07-31T15:32:38.121Z,2.10
2022-07-31T15:35:06.290Z,2.83
2022-07-31T15:37:36.997Z,2.97
2022-07-31T15:40:05.869Z,2.53
2022-07-31T15:42:33.105Z,1.60
2022-07-31T15:45:00.270Z,2.77
2022-07-31T15:47:27.818Z,2.47
2022-07-31T15:49:55.482Z,2.23
2022-07-31T15:52:22.637Z,1.70
2022-07-31T15:54:51.697Z,2.23
2022-07-31T15:57:22.553Z,2.17
2022-07-31T15:59:54.867Z,3.47
2022-07-31T16:02:22.644Z,2.63
2022-07-31T16:04:57.449Z,1.80
2022-07-31T16:08:32.837Z,3.53
2022-07-31T16:10:17.670Z,2.93
2022-07-31T16:12:48.424Z,2.80
2022-07-31T16:15:15.991Z,2.17
2022-07-31T16:17:43.141Z,2.60
2022-07-31T16:20:25.400Z,3.83
2022-07-31T16:23:01.322Z,2.87
2022-07-31T16:25:29.169Z,1.63
2022-07-31T16:27:56.394Z,1.93
2022-07-31T16:30:24.184Z,2.20
2022-07-31T16:32:51.513Z,2.77
2022-07-31T16:35:18.882Z,1.80
2022-07-31T16:37:52.113Z,1.90
2022-07-31T16:40:30.167Z,2.83
2022-07-31T16:43:50.540Z,2.27
2022-07-31T16:45:55.496Z,8.93
2022-07-31T16:48:22.838Z,14.60
2022-07-31T16:50:53.235Z,12.00
2022-07-31T16:54:13.624Z,7.63
2022-07-31T16:56:08.678Z,8.43
2022-07-31T16:58:36.243Z,7.00
2022-07-31T17:01:04.371Z,7.47
2022-07-31T17:04:00.018Z,7.80
2022-07-31T17:06:34.241Z,6.83
2022-07-31T17:09:17.373Z,7.13
2022-07-31T17:11:49.846Z,8.47
2022-07-31T17:14:17.887Z,9.17
2022-07-31T17:16:48.142Z,5.60
2022-07-31T17:19:42.087Z,7.47
2022-07-31T17:22:07.787Z,9.67
2022-07-31T17:24:37.296Z,6.43
2022-07-31T17:27:06.478Z,6.03
2022-07-31T17:29:34.022Z,8.40
2022-07-31T17:32:01.192Z,5.70
2022-07-31T17:34:28.570Z,5.97
2022-07-31T17:36:56.170Z,9.97
2022-07-31T17:39:27.284Z,7.93
2022-07-31T17:41:59.694Z,10.60
2022-07-31T17:44:29.738Z,7.67
2022-07-31T17:46:57.832Z,8.83
2022-07-31T17:49:29.647Z,18.83
2022-07-31T17:51:58.794Z,9.33
2022-07-31T17:54:35.365Z,8.23
2022-07-31T17:57:02.971Z,9.13
2022-07-31T17:59:30.514Z,11.13
2022-07-31T18:02:03.294Z,7.17
2022-07-31T18:04:34.377Z,7.73
2022-07-31T18:07:01.823Z,7.20
2022-07-31T18:09:31.503Z,11.67
2022-07-31T18:11:58.852Z,7.63
2022-07-31T18:14:26.154Z,8.07
2022-07-31T18:16:56.620Z,8.03
2022-07-31T18:19:26.483Z,7.03
2022-07-31T18:21:53.752Z,9.93
2022-07-31T18:24:21.207Z,9.93
2022-07-31T18:26:49.311Z,8.57
2022-07-31T18:29:17.057Z,8.73
2022-07-31T18:31:46.416Z,12.87
2022-07-31T18:34:13.694Z,10.53
2022-07-31T18:36:44.028Z,13.97
2022-07-31T18:39:11.442Z,11.50
2022-07-31T18:41:38.589Z,8.77
2022-07-31T18:44:08.320Z,9.27
2022-07-31T18:46:36.081Z,11.33
2022-07-31T18:49:06.162Z,11.17
2022-07-31T18:51:33.781Z,8.13
2022-07-31T18:54:01.461Z,10.23
2022-07-31T18:56:28.697Z,8.93
2022-07-31T18:59:00.596Z,11.10
2022-07-31T19:01:30.003Z,7.10
2022-07-31T19:03:57.254Z,6.53
2022-07-31T19:06:25.209Z,8.90
2022-07-31T19:08:52.735Z,7.57
2022-07-31T19:11:20.438Z,7.13
2022-07-31T19:13:50.097Z,8.90
2022-07-31T19:16:17.876Z,9.40
2022-07-31T19:18:45.005Z,8.43
2022-07-31T19:21:23.412Z,11.53
2022-07-31T19:23:59.696Z,7.40
2022-07-31T19:26:26.866Z,9.80
2022-07-31T19:28:56.670Z,7.63
2022-07-31T19:31:26.538Z,7.83
2022-07-31T19:33:55.912Z,8.90
2022-07-31T19:36:23.094Z,9.90
2022-07-31T19:38:50.275Z,9.27
2022-07-31T19:41:17.862Z,6.70
2022-07-31T19:43:45.418Z,9.37
2022-07-31T19:46:15.684Z,7.70
2022-07-31T19:48:43.667Z,7.70
2022-07-31T19:51:11.131Z,11.37
2022-07-31T19:53:41.666Z,7.73
2022-07-31T19:56:10.272Z,7.17
2022-07-31T19:58:37.552Z,7.93
2022-07-31T20:01:05.875Z,8.00
2022-07-31T20:03:33.751Z,6.40
2022-07-31T20:06:01.174Z,6.47
2022-07-31T20:08:29.687Z,7.07
2022-07-31T20:11:03.341Z,8.97
2022-07-31T20:13:33.742Z,9.13
2022-07-31T20:16:03.219Z,7.60
2022-07-31T20:18:33.250Z,5.20
2022-07-31T20:21:07.885Z,6.60
2022-07-31T20:23:38.155Z,8.93
2022-07-31T20:26:06.149Z,10.33
2022-07-31T20:28:33.906Z,8.97
2022-07-31T20:31:01.066Z,11.70
2022-07-31T20:33:28.910Z,7.60
2022-07-31T20:36:00.352Z,8.70
2022-07-31T20:38:28.028Z,7.27
2022-07-31T20:40:56.039Z,7.57
2022-07-31T20:43:29.333Z,8.20
2022-07-31T20:46:16.815Z,6.50
2022-07-31T20:48:45.335Z,6.90
2022-07-31T20:51:20.216Z,6.50
2022-07-31T20:53:48.048Z,8.13
2022-07-31T20:56:15.786Z,7.27
2022-07-31T20:58:43.037Z,6.20
2022-07-31T21:01:10.248Z,7.27
2022-07-31T21:03:37.734Z,7.40
2022-07-31T21:06:05.993Z,8.57
2022-07-31T21:08:33.220Z,5.27
2022-07-31T21:11:01.265Z,7.37
2022-07-31T21:13:31.727Z,6.00
2022-07-31T21:16:03.998Z,5.67
2022-07-31T21:18:36.404Z,5.17
2022-07-31T21:21:06.136Z,4.13
2022-07-31T21:23:33.337Z,8.00
2022-07-31T21:26:00.682Z,6.40
2022-07-31T21:28:30.007Z,6.87
2022-07-31T21:30:57.053Z,5.03
2022-07-31T21:33:24.817Z,5.83
2022-07-31T21:35:52.558Z,4.87
2022-07-31T21:38:19.851Z,7.20
2022-07-31T21:40:47.237Z,6.60
2022-07-31T21:43:16.918Z,7.03
2022-07-31T21:45:57.191Z,9.37
2022-07-31T21:48:28.702Z,8.23
2022-07-31T21:50:58.498Z,6.03
2022-07-31T21:53:26.078Z,6.50
2022-07-31T21:55:53.615Z,5.80
2022-07-31T21:58:20.364Z,6.57
2022-07-31T22:00:54.088Z,6.37
2022-07-31T22:03:25.410Z,6.57
2022-07-31T22:06:11.140Z,7.43
2022-07-31T22:08:40.218Z,11.67
2022-07-31T22:11:09.399Z,9.07
2022-07-31T22:13:36.307Z,8.97
2022-07-31T22:16:03.083Z,9.33
2022-07-31T22:18:33.251Z,7.17
2022-07-31T22:21:01.303Z,7.07
2022-07-31T22:23:28.471Z,6.97
2022-07-31T22:25:55.631Z,9.53
2022-07-31T22:28:22.994Z,9.90
2022-07-31T22:30:50.848Z,7.53
2022-07-31T22:33:18.108Z,11.37
2022-07-31T22:35:44.977Z,8.67
2022-07-31T22:38:27.967Z,15.70
2022-07-31T22:40:55.731Z,8.93
2022-07-31T22:44:10.795Z,9.13
2022-07-31T22:46:12.635Z,8.90
2022-07-31T22:48:40.718Z,12.23
2022-07-31T22:51:12.766Z,7.33
2022-07-31T22:53:44.144Z,10.37
2022-07-31T22:56:11.022Z,7.60
2022-07-31T22:58:38.552Z,7.37
2022-07-31T23:01:07.904Z,7.83
2022-07-31T23:03:34.657Z,8.33
2022-07-31T23:06:31.381Z,10.90
2022-07-31T23:08:55.009Z,6.83
2022-07-31T23:11:22.844Z,7.40
2022-07-31T23:13:54.721Z,6.20
2022-07-31T23:16:21.874Z,6.03
2022-07-31T23:18:51.683Z,5.90
2022-07-31T23:21:18.974Z,8.03
2022-07-31T23:23:49.189Z,7.37
2022-07-31T23:26:21.665Z,7.37
2022-07-31T23:28:51.168Z,5.83
2022-07-31T23:31:18.232Z,6.20
2022-07-31T23:33:45.357Z,4.03
2022-07-31T23:36:12.626Z,3.80
2022-07-31T23:38:39.839Z,6.83
2022-07-31T23:41:07.434Z,4.90
2022-07-31T23:43:34.617Z,5.37
2022-07-31T23:46:04.665Z,4.63
2022-07-31T23:48:32.469Z,7.33
2022-07-31T23:50:59.974Z,9.93
2022-07-31T23:53:27.131Z,6.20
2022-07-31T23:55:56.513Z,8.17
2022-07-31T23:58:25.752Z,7.47
